Terminal Aerodrome Forecast
Issued by NWS Milwaukee/Sullivan, WI

Home | Current Version | Previous Version | Text Only | Print | Product List | Glossary On
Versions: 1 2 3 4 5 6 7 8 9 10 11 12 13 14 15 16 17 18 19 20 21 22 23 24 25 26 27 28 29 30 31 32 33 34 35 36 37
000
FTUS43 KMKX 121138
TAFMSN
TAF
KMSN 121138Z 1212/1312 18005KT P6SM SCT030 BKN060
      TEMPO 1212/1214 BKN030
     FM121400 21005KT P6SM VCSH SCT040 BKN100
      TEMPO 1214/1217 6SM -SHRA BKN040
     FM121700 24007KT P6SM VCTS SCT035CB BKN100
     FM122200 26007KT 3SM TSRA SCT025 BKN040CB
     FM130200 30005KT 5SM BR VCTS BKN035CB
     FM130500 31005KT 5SM BR BKN040=

USA.gov is the U.S. government's official web portal to all federal, state and local government web resources and services.